createdAt,value
2019-02-12T00:02:26.206Z,6.46
2019-02-12T00:04:59.758Z,6.39
2019-02-12T00:07:33.260Z,6.33
2019-02-12T00:10:07.181Z,6.28
2019-02-12T00:12:40.718Z,6.28
2019-02-12T00:15:14.176Z,6.33
2019-02-12T00:17:47.710Z,6.32
2019-02-12T00:20:21.350Z,6.38
2019-02-12T00:22:54.935Z,6.40
2019-02-12T00:25:28.622Z,6.44
2019-02-12T00:28:02.253Z,6.45
2019-02-12T00:30:35.869Z,6.49
2019-02-12T00:33:09.403Z,6.44
2019-02-12T00:35:43.051Z,6.52
2019-02-12T00:38:16.580Z,6.48
2019-02-12T00:40:50.292Z,6.44
2019-02-12T00:43:23.797Z,6.36
2019-02-12T00:45:57.360Z,6.43
2019-02-12T00:48:30.928Z,6.47
2019-02-12T00:51:04.465Z,6.48
2019-02-12T00:53:37.834Z,6.49
2019-02-12T00:56:11.359Z,6.55
2019-02-12T00:58:44.798Z,6.49
2019-02-12T01:01:18.347Z,6.54
2019-02-12T01:03:51.818Z,6.53
2019-02-12T01:06:25.360Z,6.55
2019-02-12T01:08:58.877Z,6.59
2019-02-12T01:11:32.351Z,6.61
2019-02-12T01:14:05.799Z,6.57
2019-02-12T01:16:39.417Z,6.53
2019-02-12T01:19:12.925Z,6.44
2019-02-12T01:21:46.363Z,6.37
2019-02-12T01:24:19.873Z,6.43
2019-02-12T01:26:53.381Z,6.47
2019-02-12T01:29:26.880Z,6.42
2019-02-12T01:32:00.360Z,6.42
2019-02-12T01:34:33.859Z,6.56
2019-02-12T01:37:07.382Z,6.59
2019-02-12T01:39:40.873Z,6.58
2019-02-12T01:42:14.406Z,6.56
2019-02-12T01:44:47.855Z,6.50
2019-02-12T01:47:21.385Z,6.52
2019-02-12T01:49:54.844Z,6.49
2019-02-12T01:52:28.354Z,6.53
2019-02-12T01:55:01.903Z,6.51
2019-02-12T01:57:35.623Z,6.50
2019-02-12T02:00:11.634Z,6.57
2019-02-12T02:02:45.282Z,6.57
2019-02-12T02:05:18.785Z,6.59
2019-02-12T02:07:52.393Z,6.65
2019-02-12T02:10:25.835Z,6.67
2019-02-12T02:12:59.466Z,6.68
2019-02-12T02:15:33.003Z,6.65
2019-02-12T02:18:06.486Z,6.67
2019-02-12T02:20:39.920Z,6.71
2019-02-12T02:23:13.487Z,6.73
2019-02-12T02:25:46.975Z,6.64
2019-02-12T02:28:20.538Z,6.55
2019-02-12T02:30:54.077Z,6.57
2019-02-12T02:33:27.492Z,6.50
2019-02-12T02:36:00.980Z,6.50
2019-02-12T02:38:34.491Z,6.42
2019-02-12T02:41:08.056Z,6.46
2019-02-12T02:43:41.761Z,6.51
2019-02-12T02:46:15.337Z,6.38
2019-02-12T02:48:48.829Z,6.45
2019-02-12T02:51:22.647Z,6.49
2019-02-12T02:53:56.156Z,6.61
2019-02-12T02:56:29.695Z,6.61
2019-02-12T02:59:03.073Z,6.57
2019-02-12T03:01:36.507Z,6.53
2019-02-12T03:04:09.848Z,6.53
2019-02-12T03:06:43.292Z,6.65
2019-02-12T03:09:17.233Z,6.74
2019-02-12T03:11:50.707Z,6.68
2019-02-12T03:14:24.108Z,6.69
2019-02-12T03:16:57.499Z,6.64
2019-02-12T03:19:30.882Z,6.72
2019-02-12T03:22:04.419Z,6.62
2019-02-12T03:24:37.869Z,6.66
2019-02-12T03:27:11.215Z,6.73
2019-02-12T03:29:44.661Z,6.68
2019-02-12T03:32:17.989Z,6.76
2019-02-12T03:34:51.357Z,6.69
2019-02-12T03:37:24.800Z,6.76
2019-02-12T03:39:58.211Z,6.72
2019-02-12T03:42:31.569Z,6.72
2019-02-12T03:45:07.653Z,6.73
2019-02-12T03:47:41.238Z,6.64
2019-02-12T03:50:14.770Z,6.67
2019-02-12T03:52:48.175Z,6.70
2019-02-12T03:55:21.649Z,6.60
2019-02-12T03:57:55.071Z,6.47
2019-02-12T04:00:28.514Z,6.58
2019-02-12T04:03:03.784Z,6.63
2019-02-12T04:05:38.491Z,6.60
2019-02-12T04:08:11.987Z,6.61
2019-02-12T04:10:45.376Z,6.63
2019-02-12T04:13:18.988Z,6.48
2019-02-12T04:15:52.308Z,6.48
2019-02-12T04:18:25.785Z,6.54
2019-02-12T04:20:59.344Z,6.55
2019-02-12T04:23:32.710Z,6.46
2019-02-12T04:26:06.054Z,6.48
2019-02-12T04:28:39.533Z,6.47
2019-02-12T04:31:12.987Z,6.52
2019-02-12T04:33:46.428Z,6.35
2019-02-12T04:36:19.901Z,6.43
2019-02-12T04:38:53.344Z,6.28
2019-02-12T04:41:27.264Z,6.28
2019-02-12T04:44:00.627Z,6.34
2019-02-12T04:46:34.007Z,6.37
2019-02-12T04:49:07.509Z,6.36
2019-02-12T04:51:40.855Z,6.34
2019-02-12T04:54:14.349Z,6.38
2019-02-12T04:56:47.834Z,6.43
2019-02-12T04:59:22.900Z,6.46
2019-02-12T05:01:56.324Z,6.43
2019-02-12T05:04:29.768Z,6.34
2019-02-12T05:07:03.290Z,6.41
2019-02-12T05:09:40.098Z,6.48
2019-02-12T05:12:15.228Z,6.26
2019-02-12T05:14:48.717Z,6.25
2019-02-12T05:17:22.212Z,6.34
2019-02-12T05:19:55.636Z,6.20
2019-02-12T05:22:29.113Z,6.22
2019-02-12T05:25:02.459Z,6.29
2019-02-12T05:27:35.896Z,6.23
2019-02-12T05:30:14.240Z,6.21
2019-02-12T05:32:47.646Z,6.18
2019-02-12T05:35:21.203Z,6.19
2019-02-12T05:37:54.566Z,6.14
2019-02-12T05:40:27.953Z,6.14
2019-02-12T05:43:01.318Z,6.13
2019-02-12T05:45:34.647Z,6.15
2019-02-12T05:48:08.002Z,6.13
2019-02-12T05:50:41.320Z,6.07
2019-02-12T05:53:14.787Z,6.12
2019-02-12T05:55:48.120Z,6.17
2019-02-12T05:58:21.541Z,6.14
2019-02-12T06:00:54.925Z,6.23
2019-02-12T06:03:28.281Z,6.18
2019-02-12T06:06:01.618Z,6.19
2019-02-12T06:08:35.048Z,6.32
2019-02-12T06:11:08.421Z,6.32
2019-02-12T06:13:41.939Z,6.38
2019-02-12T06:16:15.418Z,6.36
2019-02-12T06:18:48.874Z,6.35
2019-02-12T06:21:22.351Z,6.36
2019-02-12T06:23:55.838Z,6.40
2019-02-12T06:26:29.295Z,6.47
2019-02-12T06:29:02.791Z,6.44
2019-02-12T06:31:36.265Z,6.38
2019-02-12T06:34:09.686Z,6.29
2019-02-12T06:36:43.085Z,6.33
2019-02-12T06:39:16.590Z,6.33
2019-02-12T06:41:49.922Z,6.28
2019-02-12T06:44:23.372Z,6.29
2019-02-12T06:46:56.723Z,6.29
2019-02-12T06:49:30.197Z,6.29
2019-02-12T06:52:03.552Z,6.40
2019-02-12T06:54:37.268Z,6.49
2019-02-12T06:57:10.853Z,6.47
2019-02-12T06:59:44.236Z,6.50
2019-02-12T07:02:52.820Z,6.51
2019-02-12T07:05:26.255Z,6.54
2019-02-12T07:08:11.630Z,6.57
2019-02-12T07:10:45.539Z,6.55
2019-02-12T07:13:58.791Z,6.49
2019-02-12T07:16:38.154Z,6.42
2019-02-12T07:19:20.496Z,6.52
2019-02-12T07:22:02.876Z,6.48
2019-02-12T07:24:45.133Z,6.48
2019-02-12T07:27:43.045Z,6.60
2019-02-12T07:30:31.445Z,6.63
2019-02-12T07:33:35.659Z,6.72
2019-02-12T07:36:24.381Z,6.71
2019-02-12T07:39:10.022Z,6.65
2019-02-12T07:41:46.618Z,6.64
2019-02-12T07:44:41.100Z,6.64
2019-02-12T07:47:29.391Z,6.66
2019-02-12T07:50:18.184Z,6.87
2019-02-12T07:52:54.780Z,6.74
2019-02-12T07:55:37.359Z,6.79
2019-02-12T07:58:22.492Z,6.83
2019-02-12T08:01:31.784Z,6.86
2019-02-12T08:04:41.672Z,6.82
2019-02-12T08:07:37.770Z,7.00
2019-02-12T08:10:22.832Z,7.10
2019-02-12T08:13:02.374Z,7.17
2019-02-12T08:16:08.252Z,7.27
2019-02-12T08:19:01.279Z,7.44
2019-02-12T08:21:37.807Z,7.53
2019-02-12T08:24:35.730Z,7.46
2019-02-12T08:27:14.885Z,7.41
2019-02-12T08:29:57.362Z,7.65
2019-02-12T08:32:42.663Z,7.63
2019-02-12T08:35:35.639Z,7.59
2019-02-12T08:38:21.073Z,7.70
2019-02-12T08:41:19.894Z,7.63
2019-02-12T08:44:11.281Z,7.88
2019-02-12T08:47:02.367Z,7.89
2019-02-12T08:49:44.703Z,7.92
2019-02-12T08:52:51.233Z,8.10
2019-02-12T08:55:36.959Z,8.07
2019-02-12T08:58:34.416Z,8.07
2019-02-12T09:01:07.595Z,8.23
2019-02-12T09:04:06.041Z,8.23
2019-02-12T09:06:54.590Z,8.07
2019-02-12T09:09:53.625Z,8.07
2019-02-12T09:12:42.485Z,8.35
2019-02-12T09:15:49.192Z,8.57
2019-02-12T09:18:25.748Z,8.55
2019-02-12T09:21:10.823Z,8.60
2019-02-12T09:24:13.189Z,9.00
2019-02-12T09:26:55.477Z,9.22
2019-02-12T09:29:40.996Z,9.05
2019-02-12T09:32:23.135Z,9.08
2019-02-12T09:35:21.093Z,9.24
2019-02-12T09:38:03.105Z,9.27
2019-02-12T09:40:42.592Z,9.32
2019-02-12T09:43:54.978Z,9.53
2019-02-12T09:46:55.828Z,9.43
2019-02-12T09:49:58.190Z,9.47
2019-02-12T09:53:00.217Z,9.56
2019-02-12T09:56:07.446Z,9.90
2019-02-12T09:58:46.919Z,9.69
2019-02-12T10:01:55.212Z,9.54
2019-02-12T10:04:48.289Z,9.50
2019-02-12T10:07:27.352Z,9.66
2019-02-12T10:10:13.077Z,9.47
2019-02-12T10:12:52.406Z,9.58
2019-02-12T10:15:45.668Z,9.37
2019-02-12T10:18:31.179Z,9.32
2019-02-12T10:21:31.349Z,9.29
2019-02-12T10:24:07.873Z,9.43
2019-02-12T10:26:53.530Z,9.29
2019-02-12T10:29:32.691Z,9.73
2019-02-12T10:32:08.636Z,9.61
2019-02-12T10:34:40.061Z,9.55
2019-02-12T10:37:13.384Z,9.40
2019-02-12T10:39:46.748Z,9.28
2019-02-12T10:42:20.073Z,9.27
2019-02-12T10:44:53.494Z,9.14
2019-02-12T10:47:26.914Z,9.26
2019-02-12T10:50:00.365Z,9.28
2019-02-12T10:52:33.662Z,9.23
2019-02-12T10:55:07.285Z,9.49
2019-02-12T10:57:40.622Z,9.39
2019-02-12T11:00:14.719Z,9.32
2019-02-12T11:02:48.095Z,9.34
2019-02-12T11:05:21.525Z,9.32
2019-02-12T11:07:54.849Z,9.34
2019-02-12T11:10:28.215Z,9.42
2019-02-12T11:13:01.562Z,9.44
2019-02-12T11:15:34.974Z,9.67
2019-02-12T11:18:08.373Z,9.78
2019-02-12T11:20:41.798Z,9.85
2019-02-12T11:23:15.242Z,9.93
2019-02-12T11:25:48.766Z,9.84
2019-02-12T11:28:22.170Z,9.45
2019-02-12T11:30:55.589Z,9.69
2019-02-12T11:33:28.914Z,9.95
2019-02-12T11:36:02.279Z,10.00
2019-02-12T11:38:35.604Z,10.15
2019-02-12T11:41:09.113Z,10.25
2019-02-12T11:43:42.444Z,10.30
2019-02-12T11:46:15.800Z,10.30
2019-02-12T11:48:49.135Z,10.38
2019-02-12T11:51:22.482Z,10.57
2019-02-12T11:53:55.809Z,10.85
2019-02-12T11:56:29.238Z,11.35
2019-02-12T11:59:02.566Z,11.31
2019-02-12T12:01:35.931Z,11.16
2019-02-12T12:04:09.303Z,10.97
2019-02-12T12:06:42.789Z,11.01
2019-02-12T12:09:16.127Z,10.65
2019-02-12T12:11:49.594Z,10.66
2019-02-12T12:14:23.073Z,10.82
2019-02-12T12:16:56.572Z,10.83
2019-02-12T12:19:30.040Z,10.91
2019-02-12T12:22:03.488Z,11.05
2019-02-12T12:24:36.982Z,10.90
2019-02-12T12:27:10.303Z,10.57
2019-02-12T12:29:43.656Z,10.51
2019-02-12T12:32:16.990Z,10.29
2019-02-12T12:34:50.353Z,10.42
2019-02-12T12:37:23.686Z,10.28
2019-02-12T12:39:57.076Z,10.32
2019-02-12T12:42:30.411Z,10.52
2019-02-12T12:45:04.836Z,10.58
2019-02-12T12:47:38.239Z,10.70
2019-02-12T12:50:12.743Z,10.57
2019-02-12T12:52:46.274Z,10.70
2019-02-12T12:55:19.807Z,10.89
2019-02-12T12:57:54.177Z,10.81
2019-02-12T13:00:27.826Z,10.84
2019-02-12T13:03:01.343Z,10.85
2019-02-12T13:05:34.773Z,10.84
2019-02-12T13:08:08.196Z,10.74
2019-02-12T13:10:41.646Z,10.74
2019-02-12T13:13:16.867Z,10.69
2019-02-12T13:15:50.250Z,10.62
2019-02-12T13:18:23.610Z,10.66
2019-02-12T13:20:57.040Z,10.63
2019-02-12T13:23:30.401Z,10.72
2019-02-12T13:26:03.750Z,10.57
2019-02-12T13:28:37.280Z,10.47
2019-02-12T13:31:10.654Z,10.41
2019-02-12T13:33:44.081Z,10.47
2019-02-12T13:36:17.502Z,10.46
2019-02-12T13:38:50.879Z,10.44
2019-02-12T13:41:24.378Z,10.42
2019-02-12T13:43:58.053Z,10.29
2019-02-12T13:46:31.515Z,10.29
2019-02-12T13:49:04.859Z,10.18
2019-02-12T13:51:38.206Z,10.25
2019-02-12T13:54:11.560Z,10.30
2019-02-12T13:56:45.026Z,10.35
2019-02-12T13:59:18.422Z,10.40
2019-02-12T14:01:51.949Z,10.54
2019-02-12T14:04:25.286Z,10.50
2019-02-12T14:06:58.745Z,10.58
2019-02-12T14:09:32.116Z,10.61
2019-02-12T14:12:05.590Z,10.44
2019-02-12T14:14:38.949Z,10.51
2019-02-12T14:17:12.315Z,10.53
2019-02-12T14:19:45.847Z,10.57
2019-02-12T14:22:19.287Z,10.43
2019-02-12T14:24:52.944Z,10.39
2019-02-12T14:27:26.337Z,10.36
2019-02-12T14:30:00.938Z,10.35
2019-02-12T14:32:34.307Z,10.33
2019-02-12T14:35:09.791Z,10.40
2019-02-12T14:37:43.148Z,10.24
2019-02-12T14:40:16.941Z,10.34
2019-02-12T14:42:50.423Z,10.16
2019-02-12T14:45:23.823Z,10.35
2019-02-12T14:47:57.184Z,10.45
2019-02-12T14:50:30.642Z,10.48
2019-02-12T14:53:04.005Z,10.50
2019-02-12T14:55:37.403Z,10.31
2019-02-12T14:58:10.831Z,10.33
2019-02-12T15:00:44.263Z,10.20
2019-02-12T15:03:17.691Z,10.17
2019-02-12T15:05:51.121Z,10.16
2019-02-12T15:08:24.551Z,10.23
2019-02-12T15:10:57.900Z,10.27
2019-02-12T15:13:31.451Z,10.19
2019-02-12T15:16:04.962Z,10.14
2019-02-12T15:18:38.458Z,10.15
2019-02-12T15:21:11.919Z,10.01
2019-02-12T15:23:45.351Z,10.05
2019-02-12T15:26:18.688Z,10.11
2019-02-12T15:28:52.116Z,10.13
2019-02-12T15:31:25.498Z,10.11
2019-02-12T15:33:58.894Z,10.11
2019-02-12T15:36:32.199Z,10.20
2019-02-12T15:39:05.737Z,10.11
2019-02-12T15:41:39.350Z,10.14
2019-02-12T15:44:12.799Z,10.19
2019-02-12T15:46:46.172Z,10.09
2019-02-12T15:49:19.607Z,10.10
2019-02-12T15:51:52.979Z,10.02
2019-02-12T15:54:26.400Z,9.92
2019-02-12T15:56:59.833Z,9.87
2019-02-12T15:59:33.647Z,9.86
2019-02-12T16:02:07.142Z,9.81
2019-02-12T16:04:40.551Z,9.80
2019-02-12T16:07:13.926Z,9.83
2019-02-12T16:09:47.336Z,9.83
2019-02-12T16:12:20.717Z,9.82
2019-02-12T16:14:54.088Z,9.78
2019-02-12T16:17:27.449Z,9.80
2019-02-12T16:20:00.811Z,9.82
2019-02-12T16:22:34.177Z,9.81
2019-02-12T16:25:09.927Z,9.79
2019-02-12T16:27:43.275Z,9.82
2019-02-12T16:30:18.313Z,9.83
2019-02-12T16:32:51.678Z,9.83
2019-02-12T16:35:25.117Z,9.84
2019-02-12T16:37:58.546Z,9.82
2019-02-12T16:40:31.867Z,9.83
2019-02-12T16:43:05.628Z,9.78
2019-02-12T16:45:45.230Z,9.79
2019-02-12T16:48:18.599Z,9.75
2019-02-12T16:50:51.924Z,9.73
2019-02-12T16:53:25.290Z,9.75
2019-02-12T16:55:58.647Z,9.52
2019-02-12T16:58:32.062Z,9.39
2019-02-12T17:01:05.645Z,9.44
2019-02-12T17:03:39.187Z,9.46
2019-02-12T17:06:12.990Z,9.46
2019-02-12T17:08:46.364Z,9.44
2019-02-12T17:11:19.761Z,9.43
2019-02-12T17:13:53.192Z,9.42
2019-02-12T17:16:26.532Z,9.46
2019-02-12T17:18:59.913Z,9.40
2019-02-12T17:21:33.267Z,9.39
2019-02-12T17:24:06.666Z,9.37
2019-02-12T17:26:40.039Z,9.35
2019-02-12T17:29:13.398Z,9.26
2019-02-12T17:31:46.773Z,9.26
2019-02-12T17:34:20.202Z,9.22
2019-02-12T17:36:53.613Z,9.23
2019-02-12T17:39:26.965Z,9.18
2019-02-12T17:42:00.465Z,9.10
2019-02-12T17:44:33.968Z,9.10
2019-02-12T17:47:07.314Z,8.99
2019-02-12T17:49:40.703Z,8.93
2019-02-12T17:52:14.208Z,8.82
2019-02-12T17:54:47.661Z,8.76
2019-02-12T17:57:21.046Z,8.68
2019-02-12T17:59:54.488Z,8.64
2019-02-12T18:02:27.847Z,8.54
2019-02-12T18:05:01.854Z,8.47
2019-02-12T18:07:35.188Z,8.39
2019-02-12T18:10:10.667Z,8.26
2019-02-12T18:12:44.063Z,8.28
2019-02-12T18:15:17.526Z,8.29
2019-02-12T18:17:50.857Z,8.25
2019-02-12T18:20:26.523Z,8.27
2019-02-12T18:22:59.359Z,8.23
2019-02-12T18:25:32.871Z,8.25
2019-02-12T18:28:06.278Z,8.21
2019-02-12T18:30:39.640Z,8.22
2019-02-12T18:33:13.123Z,8.19
2019-02-12T18:35:46.483Z,8.19
2019-02-12T18:38:19.887Z,8.11
2019-02-12T18:40:53.285Z,8.07
2019-02-12T18:43:26.610Z,8.02
2019-02-12T18:46:00.088Z,8.00
2019-02-12T18:48:33.545Z,7.98
2019-02-12T18:51:06.898Z,7.94
2019-02-12T18:53:40.273Z,7.88
2019-02-12T18:56:13.729Z,7.81
2019-02-12T18:58:47.223Z,7.79
2019-02-12T19:01:20.587Z,7.76
2019-02-12T19:03:53.981Z,7.72
2019-02-12T19:06:27.447Z,7.67
2019-02-12T19:09:00.817Z,7.64
2019-02-12T19:11:34.182Z,7.57
2019-02-12T19:14:07.528Z,7.57
2019-02-12T19:16:40.955Z,7.44
2019-02-12T19:19:14.328Z,7.44
2019-02-12T19:21:47.800Z,7.38
2019-02-12T19:24:21.164Z,7.37
2019-02-12T19:26:54.580Z,7.43
2019-02-12T19:29:28.055Z,7.35
2019-02-12T19:32:01.463Z,7.40
2019-02-12T19:34:34.798Z,7.38
2019-02-12T19:37:08.292Z,7.38
2019-02-12T19:39:41.676Z,7.35
2019-02-12T19:42:15.086Z,7.36
2019-02-12T19:44:48.482Z,7.37
2019-02-12T19:47:21.853Z,7.41
2019-02-12T19:49:55.277Z,7.50
2019-02-12T19:52:28.685Z,7.53
2019-02-12T19:55:02.170Z,7.56
2019-02-12T19:57:35.554Z,7.58
2019-02-12T20:00:19.508Z,7.60
2019-02-12T20:02:52.912Z,7.56
2019-02-12T20:05:26.281Z,7.62
2019-02-12T20:07:59.727Z,7.70
2019-02-12T20:10:33.244Z,7.70
2019-02-12T20:13:06.701Z,7.81
2019-02-12T20:15:40.139Z,7.92
2019-02-12T20:18:13.937Z,7.83
2019-02-12T20:20:47.524Z,7.91
2019-02-12T20:23:21.147Z,7.95
2019-02-12T20:25:54.520Z,7.97
2019-02-12T20:28:27.941Z,8.00
2019-02-12T20:31:02.703Z,7.97
2019-02-12T20:33:36.171Z,7.90
2019-02-12T20:36:09.662Z,7.82
2019-02-12T20:38:43.264Z,7.87
2019-02-12T20:41:17.301Z,7.86
2019-02-12T20:43:51.056Z,7.80
2019-02-12T20:46:25.171Z,7.77
2019-02-12T20:48:58.749Z,7.74
2019-02-12T20:51:33.088Z,7.72
2019-02-12T20:54:06.791Z,7.72
2019-02-12T20:56:40.520Z,7.79
2019-02-12T20:59:14.261Z,7.86
2019-02-12T21:01:48.733Z,7.88
2019-02-12T21:04:22.698Z,7.82
2019-02-12T21:06:56.432Z,7.83
2019-02-12T21:09:31.335Z,7.94
2019-02-12T21:12:05.050Z,8.01
2019-02-12T21:14:38.716Z,8.01
2019-02-12T21:17:12.175Z,8.01
2019-02-12T21:19:45.640Z,8.00
2019-02-12T21:22:19.301Z,8.06
2019-02-12T21:24:53.674Z,8.05
2019-02-12T21:27:27.093Z,8.07
2019-02-12T21:30:00.545Z,8.10
2019-02-12T21:32:34.059Z,8.11
2019-02-12T21:35:10.041Z,8.18
2019-02-12T21:37:43.522Z,8.21
2019-02-12T21:40:37.766Z,8.21
2019-02-12T21:43:11.212Z,8.17
2019-02-12T21:45:44.566Z,8.16
2019-02-12T21:48:17.950Z,8.28
2019-02-12T21:50:51.324Z,8.30
2019-02-12T21:53:24.706Z,8.38
2019-02-12T21:55:58.188Z,8.36
2019-02-12T21:58:31.547Z,8.27
2019-02-12T22:01:05.001Z,8.25
2019-02-12T22:03:38.460Z,8.31
2019-02-12T22:06:11.857Z,8.32
2019-02-12T22:08:45.287Z,8.31
2019-02-12T22:11:18.687Z,8.36
2019-02-12T22:13:52.079Z,8.44
2019-02-12T22:16:25.439Z,8.26
2019-02-12T22:18:58.768Z,8.40
2019-02-12T22:21:31.976Z,8.33
2019-02-12T22:24:05.377Z,8.41
2019-02-12T22:26:38.732Z,8.42
2019-02-12T22:29:12.065Z,8.42
2019-02-12T22:31:45.418Z,8.39
2019-02-12T22:34:18.753Z,8.43
2019-02-12T22:36:52.132Z,8.28
2019-02-12T22:39:25.555Z,8.46
2019-02-12T22:41:59.038Z,8.46
2019-02-12T22:44:32.422Z,8.52
2019-02-12T22:47:05.801Z,8.52
2019-02-12T22:49:39.146Z,8.43
2019-02-12T22:52:12.633Z,8.53
2019-02-12T22:54:45.941Z,8.57
2019-02-12T22:57:19.299Z,8.48
2019-02-12T22:59:52.632Z,8.60
2019-02-12T23:02:26.002Z,8.68
2019-02-12T23:05:00.731Z,8.69
2019-02-12T23:07:34.031Z,8.64
2019-02-12T23:10:09.505Z,8.75
2019-02-12T23:12:43.047Z,8.58
2019-02-12T23:15:16.381Z,8.57
2019-02-12T23:17:49.778Z,8.59
2019-02-12T23:20:23.202Z,8.54
2019-02-12T23:22:56.765Z,8.46
2019-02-12T23:25:30.132Z,8.56
2019-02-12T23:28:03.547Z,8.58
2019-02-12T23:30:36.941Z,8.45
2019-02-12T23:33:10.366Z,8.45
2019-02-12T23:35:43.696Z,8.48
2019-02-12T23:38:17.256Z,8.39
2019-02-12T23:40:50.608Z,8.33
2019-02-12T23:43:24.072Z,8.37
2019-02-12T23:45:57.482Z,8.40
2019-02-12T23:48:30.862Z,8.45
2019-02-12T23:51:04.413Z,8.42
2019-02-12T23:53:37.894Z,8.48
2019-02-12T23:56:12.212Z,8.52
2019-02-12T23:58:45.723Z,8.61
